createdAt,value
2023-04-12T00:01:53.285Z,8.00
2023-04-12T00:04:43.449Z,7.90
2023-04-12T00:07:33.260Z,7.80
2023-04-12T00:10:24.484Z,7.80
2023-04-12T00:13:14.139Z,7.70
2023-04-12T00:16:03.704Z,7.60
2023-04-12T00:18:53.316Z,7.50
2023-04-12T00:21:42.688Z,7.50
2023-04-12T00:24:32.467Z,7.40
2023-04-12T00:27:23.448Z,7.30
2023-04-12T00:30:13.975Z,7.20
2023-04-12T00:33:03.580Z,7.20
2023-04-12T00:35:53.230Z,7.10
2023-04-12T00:38:42.747Z,7.10
2023-04-12T00:41:32.606Z,7.00
2023-04-12T00:44:23.676Z,7.00
2023-04-12T00:47:13.369Z,6.90
2023-04-12T00:50:12.608Z,6.90
2023-04-12T00:53:52.509Z,6.80
2023-04-12T00:56:45.350Z,6.70
2023-04-12T00:59:36.460Z,6.70
2023-04-12T01:02:27.207Z,6.60
2023-04-12T01:05:22.531Z,6.60
2023-04-12T01:08:21.126Z,6.60
2023-04-12T01:11:17.552Z,6.60
2023-04-12T01:14:13.103Z,6.70
2023-04-12T01:17:09.343Z,6.70
2023-04-12T01:20:13.845Z,6.70
2023-04-12T01:23:24.624Z,6.70
2023-04-12T01:26:34.904Z,6.70
2023-04-12T01:29:29.522Z,6.80
2023-04-12T01:32:19.885Z,6.80
2023-04-12T01:35:12.278Z,6.90
2023-04-12T01:38:02.631Z,7.00
2023-04-12T01:40:52.424Z,7.10
2023-04-12T01:43:45.344Z,7.20
2023-04-12T01:46:37.873Z,7.30
2023-04-12T01:49:34.141Z,7.30
2023-04-12T01:52:26.913Z,7.30
2023-04-12T01:55:18.503Z,7.30
2023-04-12T01:58:09.426Z,7.30
2023-04-12T02:01:01.259Z,7.30
2023-04-12T02:03:54.138Z,7.30
2023-04-12T02:06:44.574Z,7.30
2023-04-12T02:09:39.859Z,7.30
2023-04-12T02:12:29.930Z,7.40
2023-04-12T02:15:21.532Z,7.40
2023-04-12T02:18:12.526Z,7.50
2023-04-12T02:21:04.515Z,7.40
2023-04-12T02:23:54.068Z,7.40
2023-04-12T02:26:43.500Z,7.40
2023-04-12T02:29:33.402Z,7.30
2023-04-12T02:32:22.808Z,7.30
2023-04-12T02:35:13.014Z,7.30
2023-04-12T02:38:08.419Z,7.20
2023-04-12T02:40:58.141Z,7.20
2023-04-12T02:43:47.785Z,7.20
2023-04-12T02:46:37.333Z,7.10
2023-04-12T02:49:26.917Z,7.10
2023-04-12T02:52:16.668Z,7.00
2023-04-12T02:55:09.203Z,6.90
2023-04-12T02:57:58.837Z,6.90
2023-04-12T03:00:50.366Z,6.90
2023-04-12T03:03:40.034Z,6.90
2023-04-12T03:06:30.439Z,7.00
2023-04-12T03:09:20.123Z,7.10
2023-04-12T03:12:11.646Z,7.10
2023-04-12T03:15:01.793Z,7.10
2023-04-12T03:17:51.824Z,7.10
2023-04-12T03:20:42.212Z,7.00
2023-04-12T03:23:31.592Z,7.00
2023-04-12T03:26:21.575Z,6.90
2023-04-12T03:29:12.690Z,6.80
2023-04-12T03:32:02.254Z,6.80
2023-04-12T03:34:51.608Z,6.80
2023-04-12T03:37:45.651Z,6.90
2023-04-12T03:40:34.961Z,6.90
2023-04-12T03:43:24.507Z,6.80
2023-04-12T03:46:16.275Z,6.80
2023-04-12T03:49:05.949Z,6.80
2023-04-12T03:51:55.841Z,6.70
2023-04-12T03:54:45.521Z,6.70
2023-04-12T03:57:35.080Z,6.60
2023-04-12T04:00:24.777Z,6.60
2023-04-12T04:03:17.111Z,6.50
2023-04-12T04:06:07.181Z,6.50
2023-04-12T04:08:56.721Z,6.50
2023-04-12T04:11:46.139Z,6.50
2023-04-12T04:14:37.617Z,6.50
2023-04-12T04:17:27.289Z,6.60
2023-04-12T04:20:18.583Z,6.70
2023-04-12T04:23:10.569Z,6.70
2023-04-12T04:26:00.153Z,6.90
2023-04-12T04:28:50.638Z,6.90
2023-04-12T04:31:40.247Z,7.00
2023-04-12T04:34:29.748Z,7.10
2023-04-12T04:37:21.644Z,7.20
2023-04-12T04:40:12.834Z,7.30
2023-04-12T04:43:02.435Z,7.50
2023-04-12T04:45:54.957Z,7.60
2023-04-12T04:48:44.628Z,7.70
2023-04-12T04:51:40.556Z,7.80
2023-04-12T04:54:31.592Z,7.90
2023-04-12T04:57:21.374Z,8.10
2023-04-12T05:00:13.841Z,8.10
2023-04-12T05:03:04.579Z,8.20
2023-04-12T05:05:54.206Z,8.30
2023-04-12T05:08:43.813Z,8.40
2023-04-12T05:11:34.723Z,8.50
2023-04-12T05:14:24.267Z,8.60
2023-04-12T05:17:13.891Z,8.70
2023-04-12T05:20:06.587Z,8.70
2023-04-12T05:22:56.488Z,8.80
2023-04-12T05:25:50.409Z,8.90
2023-04-12T05:28:41.578Z,9.00
2023-04-12T05:31:31.307Z,9.10
2023-04-12T05:34:20.852Z,9.20
2023-04-12T05:37:10.663Z,9.30
2023-04-12T05:40:00.426Z,9.40
2023-04-12T05:42:50.013Z,9.60
2023-04-12T05:45:41.216Z,9.70
2023-04-12T05:48:30.792Z,9.80
2023-04-12T05:51:30.663Z,9.90
2023-04-12T05:54:27.955Z,10.10
2023-04-12T05:57:18.294Z,10.30
2023-04-12T06:00:13.709Z,10.30
2023-04-12T06:03:05.226Z,10.60
2023-04-12T06:05:55.718Z,10.90
2023-04-12T06:08:45.487Z,11.10
2023-04-12T06:11:35.365Z,11.50
2023-04-12T06:14:24.896Z,11.50
2023-04-12T06:17:15.146Z,11.60
2023-04-12T06:20:09.878Z,11.70
2023-04-12T06:22:59.469Z,11.60
2023-04-12T06:25:50.869Z,11.80
2023-04-12T06:28:40.404Z,11.90
2023-04-12T06:31:30.280Z,11.90
2023-04-12T06:34:19.967Z,12.00
2023-04-12T06:37:11.364Z,12.10
2023-04-12T06:40:00.880Z,12.30
2023-04-12T06:42:50.506Z,12.50
2023-04-12T06:45:40.385Z,12.80
2023-04-12T06:48:30.095Z,13.00
2023-04-12T06:51:20.030Z,13.30
2023-04-12T06:54:10.986Z,13.40
2023-04-12T06:57:02.173Z,13.70
2023-04-12T06:59:51.860Z,13.80
2023-04-12T07:02:41.689Z,13.70
2023-04-12T07:05:31.404Z,14.00
2023-04-12T07:08:21.251Z,14.30
2023-04-12T07:11:20.595Z,14.40
2023-04-12T07:14:12.990Z,14.40
2023-04-12T07:17:02.683Z,14.60
2023-04-12T07:19:52.593Z,14.80
2023-04-12T07:22:42.301Z,14.90
2023-04-12T07:25:32.049Z,14.90
2023-04-12T07:28:23.279Z,15.40
2023-04-12T07:31:12.822Z,15.40
2023-04-12T07:34:02.745Z,15.40
2023-04-12T07:36:52.396Z,15.50
2023-04-12T07:39:42.163Z,15.60
2023-04-12T07:42:31.823Z,15.60
2023-04-12T07:45:23.201Z,15.80
2023-04-12T07:48:12.825Z,16.10
2023-04-12T07:51:02.667Z,16.50
2023-04-12T07:53:52.348Z,16.60
2023-04-12T07:56:42.149Z,16.50
2023-04-12T07:59:32.187Z,16.50
2023-04-12T08:02:26.445Z,16.50
2023-04-12T08:05:16.507Z,16.20
2023-04-12T08:08:06.469Z,16.30
2023-04-12T08:10:56.109Z,16.20
2023-04-12T08:13:45.629Z,16.10
2023-04-12T08:16:35.226Z,16.00
2023-04-12T08:19:27.946Z,16.20
2023-04-12T08:22:17.489Z,16.10
2023-04-12T08:25:07.863Z,16.10
2023-04-12T08:27:57.454Z,16.20
2023-04-12T08:30:47.283Z,15.90
2023-04-12T08:33:37.166Z,15.60
2023-04-12T08:36:28.795Z,15.60
2023-04-12T08:39:18.406Z,15.60
2023-04-12T08:42:09.225Z,15.70
2023-04-12T08:44:58.847Z,15.60
2023-04-12T08:47:48.728Z,15.70
2023-04-12T08:50:38.407Z,15.80
2023-04-12T08:53:30.064Z,15.90
2023-04-12T08:56:20.867Z,16.10
2023-04-12T08:59:11.999Z,16.10
2023-04-12T09:02:02.233Z,16.00
2023-04-12T09:04:53.993Z,16.10
2023-04-12T09:07:44.110Z,16.00
2023-04-12T09:10:37.362Z,16.20
2023-04-12T09:13:34.874Z,16.00
2023-04-12T09:16:40.853Z,16.30
2023-04-12T09:19:34.888Z,16.50
2023-04-12T09:22:46.998Z,16.50
2023-04-12T09:25:55.880Z,16.50
2023-04-12T09:28:54.045Z,16.70
2023-04-12T09:32:02.080Z,16.90
2023-04-12T09:35:07.969Z,16.70
2023-04-12T09:38:00.230Z,16.60
2023-04-12T09:40:51.306Z,16.80
2023-04-12T09:43:41.124Z,17.00
2023-04-12T09:46:31.069Z,16.90
2023-04-12T09:49:20.765Z,17.10
2023-04-12T09:52:11.929Z,17.20
2023-04-12T09:55:02.001Z,17.30
2023-04-12T09:57:54.231Z,17.30
2023-04-12T10:00:45.511Z,17.40
2023-04-12T10:03:36.291Z,17.30
2023-04-12T10:06:27.568Z,17.10
2023-04-12T10:09:18.007Z,17.30
2023-04-12T10:12:08.731Z,17.40
2023-04-12T10:15:00.919Z,17.80
2023-04-12T10:17:51.681Z,18.10
2023-04-12T10:20:43.369Z,18.90
2023-04-12T10:23:34.705Z,19.40
2023-04-12T10:26:24.403Z,19.50
2023-04-12T10:29:27.822Z,19.50
2023-04-12T10:32:23.159Z,19.10
2023-04-12T10:35:13.841Z,19.10
2023-04-12T10:38:04.888Z,18.90
2023-04-12T10:41:18.307Z,18.50
2023-04-12T10:44:26.199Z,18.30
2023-04-12T10:47:16.274Z,18.70
2023-04-12T10:50:27.246Z,19.10
2023-04-12T10:53:29.156Z,19.50
2023-04-12T10:56:38.410Z,20.20
2023-04-12T10:59:41.081Z,20.30
2023-04-12T11:02:37.103Z,20.00
2023-04-12T11:05:28.519Z,19.90
2023-04-12T11:08:21.224Z,20.00
2023-04-12T11:11:21.728Z,20.10
2023-04-12T11:14:12.460Z,20.00
2023-04-12T11:17:28.065Z,19.60
2023-04-12T11:20:18.677Z,19.50
2023-04-12T11:23:11.749Z,19.90
2023-04-12T11:26:01.949Z,19.70
2023-04-12T11:28:53.627Z,19.80
2023-04-12T11:31:43.606Z,19.50
2023-04-12T11:34:35.823Z,19.50
2023-04-12T11:37:27.516Z,20.00
2023-04-12T11:40:18.947Z,20.20
2023-04-12T11:43:08.465Z,20.10
2023-04-12T11:46:00.265Z,20.20
2023-04-12T11:48:50.172Z,20.10
2023-04-12T11:51:39.708Z,20.00
2023-04-12T11:54:37.421Z,20.00
2023-04-12T11:57:29.455Z,19.80
2023-04-12T12:00:20.515Z,19.60
2023-04-12T12:03:10.373Z,19.70
2023-04-12T12:06:00.726Z,19.90
2023-04-12T12:08:52.784Z,19.80
2023-04-12T12:11:42.327Z,20.00
2023-04-12T12:14:36.923Z,19.70
2023-04-12T12:17:29.031Z,19.60
2023-04-12T12:20:23.219Z,19.70
2023-04-12T12:23:12.692Z,19.60
2023-04-12T12:26:17.929Z,19.80
2023-04-12T12:29:10.030Z,20.00
2023-04-12T12:32:03.225Z,20.10
2023-04-12T12:34:55.273Z,20.70
2023-04-12T12:37:52.810Z,21.00
2023-04-12T12:40:42.792Z,21.00
2023-04-12T12:43:33.185Z,20.30
2023-04-12T12:46:23.374Z,20.30
2023-04-12T12:49:14.864Z,20.00
2023-04-12T12:52:04.765Z,20.00
2023-04-12T12:55:00.152Z,19.70
2023-04-12T12:58:06.020Z,19.30
2023-04-12T13:00:56.815Z,18.90
2023-04-12T13:03:46.872Z,18.90
2023-04-12T13:06:39.389Z,18.60
2023-04-12T13:09:28.951Z,18.40
2023-04-12T13:12:18.432Z,18.20
2023-04-12T13:15:21.114Z,18.40
2023-04-12T13:18:13.372Z,18.50
2023-04-12T13:21:02.993Z,18.50
2023-04-12T13:23:54.640Z,18.50
2023-04-12T13:26:44.184Z,18.40
2023-04-12T13:29:34.472Z,18.30
2023-04-12T13:32:24.092Z,18.30
2023-04-12T13:35:14.229Z,18.30
2023-04-12T13:38:03.732Z,18.20
2023-04-12T13:40:57.325Z,18.00
2023-04-12T13:43:46.924Z,18.10
2023-04-12T13:46:37.407Z,17.90
2023-04-12T13:49:27.228Z,17.90
2023-04-12T13:52:17.369Z,17.90
2023-04-12T13:55:11.082Z,17.90
2023-04-12T13:58:02.436Z,17.80
2023-04-12T14:00:54.433Z,17.70
2023-04-12T14:03:44.328Z,17.70
2023-04-12T14:06:34.438Z,17.70
2023-04-12T14:09:27.915Z,17.80
2023-04-12T14:12:17.541Z,17.70
2023-04-12T14:15:10.454Z,17.60
2023-04-12T14:18:00.363Z,17.80
2023-04-12T14:20:53.034Z,18.00
2023-04-12T14:23:42.973Z,18.10
2023-04-12T14:26:32.626Z,18.30
2023-04-12T14:29:22.389Z,18.40
2023-04-12T14:32:13.554Z,18.50
2023-04-12T14:35:03.510Z,18.60
2023-04-12T14:37:53.102Z,18.60
2023-04-12T14:40:43.064Z,18.70
2023-04-12T14:43:32.631Z,18.60
2023-04-12T14:46:22.546Z,18.60
2023-04-12T14:49:14.644Z,18.70
2023-04-12T14:52:05.265Z,18.80
2023-04-12T14:54:54.906Z,18.70
2023-04-12T14:57:44.983Z,18.80
2023-04-12T15:00:36.005Z,18.90
2023-04-12T15:03:26.928Z,18.80
2023-04-12T15:06:18.397Z,18.70
2023-04-12T15:09:07.747Z,18.60
2023-04-12T15:12:01.581Z,18.70
2023-04-12T15:14:54.393Z,18.50
2023-04-12T15:17:44.558Z,18.50
2023-04-12T15:20:34.225Z,18.50
2023-04-12T15:23:25.206Z,18.30
2023-04-12T15:26:16.214Z,18.30
2023-04-12T15:29:05.874Z,18.10
2023-04-12T15:31:56.396Z,17.70
2023-04-12T15:34:47.399Z,17.50
2023-04-12T15:37:37.627Z,17.40
2023-04-12T15:40:28.812Z,17.20
2023-04-12T15:43:18.679Z,17.20
2023-04-12T15:46:09.308Z,16.90
2023-04-12T15:48:59.530Z,16.90
2023-04-12T15:51:49.025Z,16.80
2023-04-12T15:54:44.136Z,16.50
2023-04-12T15:57:36.986Z,16.40
2023-04-12T16:00:27.787Z,16.50
2023-04-12T16:03:20.119Z,16.60
2023-04-12T16:06:10.255Z,16.80
2023-04-12T16:09:00.136Z,16.80
2023-04-12T16:11:50.202Z,16.80
2023-04-12T16:14:42.174Z,16.90
2023-04-12T16:17:31.577Z,16.80
2023-04-12T16:20:22.456Z,16.90
2023-04-12T16:23:11.962Z,16.70
2023-04-12T16:26:01.865Z,16.80
2023-04-12T16:28:52.109Z,16.70
2023-04-12T16:31:43.840Z,16.50
2023-04-12T16:34:34.348Z,16.40
2023-04-12T16:37:24.490Z,16.20
2023-04-12T16:40:17.594Z,16.00
2023-04-12T16:43:08.328Z,15.80
2023-04-12T16:45:58.328Z,15.70
2023-04-12T16:48:49.747Z,15.60
2023-04-12T16:51:39.297Z,15.50
2023-04-12T16:54:30.165Z,15.50
2023-04-12T16:57:20.588Z,15.40
2023-04-12T17:00:21.153Z,15.40
2023-04-12T17:03:14.393Z,15.30
2023-04-12T17:06:07.042Z,15.10
2023-04-12T17:08:56.935Z,15.00
2023-04-12T17:11:47.956Z,14.90
2023-04-12T17:14:38.266Z,14.80
2023-04-12T17:17:29.745Z,14.70
2023-04-12T17:20:22.100Z,14.60
2023-04-12T17:23:14.566Z,14.60
2023-04-12T17:26:06.695Z,14.40
2023-04-12T17:28:57.605Z,14.30
2023-04-12T17:31:52.984Z,14.20
2023-04-12T17:34:45.997Z,13.90
2023-04-12T17:37:36.667Z,13.80
2023-04-12T17:40:28.111Z,13.60
2023-04-12T17:43:18.626Z,13.40
2023-04-12T17:46:09.192Z,13.30
2023-04-12T17:49:00.664Z,13.20
2023-04-12T17:51:51.545Z,13.10
2023-04-12T17:54:44.661Z,13.00
2023-04-12T17:57:39.526Z,13.00
2023-04-12T18:00:31.392Z,13.00
2023-04-12T18:03:21.692Z,13.00
2023-04-12T18:06:13.698Z,12.90
2023-04-12T18:09:06.462Z,12.80
2023-04-12T18:11:57.227Z,12.70
2023-04-12T18:14:49.623Z,12.50
2023-04-12T18:17:41.880Z,12.40
2023-04-12T18:20:32.946Z,12.20
2023-04-12T18:23:25.248Z,12.10
2023-04-12T18:26:16.560Z,11.90
2023-04-12T18:29:07.376Z,11.80
2023-04-12T18:32:00.250Z,11.60
2023-04-12T18:34:51.037Z,11.50
2023-04-12T18:37:42.238Z,11.40
2023-04-12T18:40:33.896Z,11.30
2023-04-12T18:43:24.771Z,11.30
2023-04-12T18:46:19.129Z,11.20
2023-04-12T18:49:12.291Z,11.10
2023-04-12T18:52:04.674Z,11.10
2023-04-12T18:55:01.048Z,11.10
2023-04-12T18:57:52.554Z,11.10
2023-04-12T19:00:44.662Z,11.10
2023-04-12T19:03:35.896Z,11.00
2023-04-12T19:06:28.882Z,10.90
2023-04-12T19:09:20.093Z,10.90
2023-04-12T19:12:10.972Z,10.90
2023-04-12T19:15:03.686Z,10.80
2023-04-12T19:17:55.223Z,10.90
2023-04-12T19:20:47.432Z,10.90
2023-04-12T19:23:41.174Z,11.10
2023-04-12T19:26:33.926Z,11.20
2023-04-12T19:29:28.869Z,11.30
2023-04-12T19:32:23.580Z,11.40
2023-04-12T19:35:15.370Z,11.50
2023-04-12T19:38:06.199Z,11.50
2023-04-12T19:41:01.900Z,11.60
2023-04-12T19:43:53.576Z,11.60
2023-04-12T19:46:47.112Z,11.70
2023-04-12T19:49:39.339Z,11.70
2023-04-12T19:52:31.045Z,11.70
2023-04-12T19:55:23.703Z,11.80
2023-04-12T19:58:17.935Z,11.80
2023-04-12T20:01:11.850Z,11.80
2023-04-12T20:04:03.301Z,11.80
2023-04-12T20:06:55.181Z,11.80
2023-04-12T20:09:47.705Z,11.80
2023-04-12T20:12:38.954Z,11.80
2023-04-12T20:15:36.319Z,11.80
2023-04-12T20:18:27.032Z,11.70
2023-04-12T20:21:17.441Z,11.70
2023-04-12T20:24:10.214Z,11.60
2023-04-12T20:27:15.163Z,11.50
2023-04-12T20:30:07.270Z,11.50
2023-04-12T20:33:02.285Z,11.40
2023-04-12T20:35:53.905Z,11.30
2023-04-12T20:38:45.004Z,11.10
2023-04-12T20:41:39.154Z,11.10
2023-04-12T20:44:29.622Z,11.20
2023-04-12T20:47:21.605Z,11.30
2023-04-12T20:50:13.036Z,11.30
2023-04-12T20:53:03.461Z,11.40
2023-04-12T20:55:53.612Z,11.40
2023-04-12T20:58:45.432Z,11.50
2023-04-12T21:01:35.942Z,11.50
2023-04-12T21:04:27.910Z,11.50
2023-04-12T21:07:21.701Z,11.50
2023-04-12T21:10:14.336Z,11.50
2023-04-12T21:13:04.073Z,11.50
2023-04-12T21:15:53.894Z,11.60
2023-04-12T21:18:43.409Z,11.60
2023-04-12T21:21:35.083Z,11.60
2023-04-12T21:24:26.368Z,11.60
2023-04-12T21:27:16.051Z,11.60
2023-04-12T21:30:05.966Z,11.50
2023-04-12T21:32:55.937Z,11.50
2023-04-12T21:35:45.533Z,11.50
2023-04-12T21:38:35.346Z,11.40
2023-04-12T21:41:26.855Z,11.40
2023-04-12T21:44:16.380Z,11.40
2023-04-12T21:47:07.108Z,11.40
2023-04-12T21:49:57.909Z,11.30
2023-04-12T21:52:47.703Z,11.30
2023-04-12T21:55:37.266Z,11.30
2023-04-12T21:58:30.029Z,11.30
2023-04-12T22:01:20.026Z,11.30
2023-04-12T22:04:09.607Z,11.10
2023-04-12T22:06:59.185Z,11.10
2023-04-12T22:09:48.875Z,11.10
2023-04-12T22:12:38.338Z,11.00
2023-04-12T22:15:30.248Z,11.00
2023-04-12T22:18:19.718Z,10.90
2023-04-12T22:21:10.590Z,10.80
2023-04-12T22:24:00.688Z,10.80
2023-04-12T22:26:50.775Z,10.70
2023-04-12T22:29:40.758Z,10.60
2023-04-12T22:32:32.444Z,10.50
2023-04-12T22:35:23.166Z,10.40
2023-04-12T22:38:15.092Z,10.30
2023-04-12T22:41:06.754Z,10.20
2023-04-12T22:44:01.818Z,10.20
2023-04-12T22:46:51.942Z,10.20
2023-04-12T22:49:50.828Z,10.10
2023-04-12T22:52:41.122Z,10.10
2023-04-12T22:55:30.942Z,10.10
2023-04-12T22:58:20.670Z,10.10
2023-04-12T23:01:11.382Z,10.00
2023-04-12T23:04:01.358Z,10.00
2023-04-12T23:06:56.760Z,9.90
2023-04-12T23:09:47.410Z,9.80
2023-04-12T23:12:37.951Z,9.70
2023-04-12T23:15:27.543Z,9.60
2023-04-12T23:18:17.183Z,9.50
2023-04-12T23:21:07.404Z,9.40
2023-04-12T23:23:58.818Z,9.30
2023-04-12T23:26:48.784Z,9.20
2023-04-12T23:29:39.063Z,9.10
2023-04-12T23:32:28.560Z,9.00
2023-04-12T23:35:18.342Z,8.90
2023-04-12T23:38:08.442Z,8.90
2023-04-12T23:41:00.028Z,8.80
2023-04-12T23:43:49.766Z,8.70
2023-04-12T23:46:39.245Z,8.80
2023-04-12T23:49:28.786Z,8.80
2023-04-12T23:52:18.834Z,8.80
2023-04-12T23:55:09.625Z,8.90
2023-04-12T23:58:00.584Z,9.00
